sensor_id;sensor_type;location;lat;lon;timestamp;P1;durP1;ratioP1;P2;durP2;ratioP2
55655;SDS011;41530;52.382;5.270;2023-04-16T00:01:36;4.97;;;1.05;;
55655;SDS011;41530;52.382;5.270;2023-04-16T00:04:02;2.88;;;1.00;;
55655;SDS011;41530;52.382;5.270;2023-04-16T00:06:29;5.03;;;0.90;;
55655;SDS011;41530;52.382;5.270;2023-04-16T00:08:57;5.45;;;1.02;;
55655;SDS011;41530;52.382;5.270;2023-04-16T00:11:23;2.50;;;0.90;;
55655;SDS011;41530;52.382;5.270;2023-04-16T00:13:50;3.67;;;1.00;;
55655;SDS011;41530;52.382;5.270;2023-04-16T00:16:17;4.25;;;0.88;;
55655;SDS011;41530;52.382;5.270;2023-04-16T00:18:43;2.42;;;0.80;;
55655;SDS011;41530;52.382;5.270;2023-04-16T00:21:10;5.47;;;0.90;;
55655;SDS011;41530;52.382;5.270;2023-04-16T00:23:37;1.45;;;0.80;;
55655;SDS011;41530;52.382;5.270;2023-04-16T00:26:04;3.63;;;1.05;;
55655;SDS011;41530;52.382;5.270;2023-04-16T00:28:30;2.65;;;1.10;;
55655;SDS011;41530;52.382;5.270;2023-04-16T00:30:59;2.58;;;0.77;;
55655;SDS011;41530;52.382;5.270;2023-04-16T00:33:26;3.78;;;1.20;;
55655;SDS011;41530;52.382;5.270;2023-04-16T00:35:55;1.15;;;0.68;;
55655;SDS011;41530;52.382;5.270;2023-04-16T00:38:21;1.85;;;0.85;;
55655;SDS011;41530;52.382;5.270;2023-04-16T00:40:48;2.47;;;1.00;;
55655;SDS011;41530;52.382;5.270;2023-04-16T00:43:21;2.40;;;0.88;;
55655;SDS011;41530;52.382;5.270;2023-04-16T00:45:48;2.72;;;1.00;;
55655;SDS011;41530;52.382;5.270;2023-04-16T00:48:15;3.20;;;1.13;;
55655;SDS011;41530;52.382;5.270;2023-04-16T00:50:42;1.75;;;0.82;;
55655;SDS011;41530;52.382;5.270;2023-04-16T00:53:09;2.90;;;1.17;;
55655;SDS011;41530;52.382;5.270;2023-04-16T00:55:36;2.20;;;1.08;;
55655;SDS011;41530;52.382;5.270;2023-04-16T00:58:04;3.80;;;1.10;;
55655;SDS011;41530;52.382;5.270;2023-04-16T01:00:31;1.52;;;0.60;;
55655;SDS011;41530;52.382;5.270;2023-04-16T01:02:58;4.22;;;1.08;;
55655;SDS011;41530;52.382;5.270;2023-04-16T01:05:25;1.48;;;0.65;;
55655;SDS011;41530;52.382;5.270;2023-04-16T01:07:52;2.47;;;0.93;;
55655;SDS011;41530;52.382;5.270;2023-04-16T01:10:18;2.00;;;1.00;;
55655;SDS011;41530;52.382;5.270;2023-04-16T01:12:45;1.95;;;0.80;;
55655;SDS011;41530;52.382;5.270;2023-04-16T01:15:12;2.75;;;0.80;;
55655;SDS011;41530;52.382;5.270;2023-04-16T01:17:38;2.88;;;0.95;;
55655;SDS011;41530;52.382;5.270;2023-04-16T01:20:05;3.20;;;1.00;;
55655;SDS011;41530;52.382;5.270;2023-04-16T01:22:32;2.83;;;1.20;;
55655;SDS011;41530;52.382;5.270;2023-04-16T01:24:58;3.55;;;1.02;;
55655;SDS011;41530;52.382;5.270;2023-04-16T01:27:25;3.55;;;0.80;;
55655;SDS011;41530;52.382;5.270;2023-04-16T01:29:52;2.85;;;0.88;;
55655;SDS011;41530;52.382;5.270;2023-04-16T01:32:18;4.65;;;1.00;;
55655;SDS011;41530;52.382;5.270;2023-04-16T01:34:45;3.28;;;1.00;;
55655;SDS011;41530;52.382;5.270;2023-04-16T01:37:12;6.32;;;1.38;;
55655;SDS011;41530;52.382;5.270;2023-04-16T01:39:39;5.15;;;1.45;;
55655;SDS011;41530;52.382;5.270;2023-04-16T01:42:05;4.15;;;1.52;;
55655;SDS011;41530;52.382;5.270;2023-04-16T01:44:32;3.42;;;1.40;;
55655;SDS011;41530;52.382;5.270;2023-04-16T01:46:58;4.80;;;1.40;;
55655;SDS011;41530;52.382;5.270;2023-04-16T01:49:25;3.58;;;1.23;;
55655;SDS011;41530;52.382;5.270;2023-04-16T01:51:52;4.38;;;1.40;;
55655;SDS011;41530;52.382;5.270;2023-04-16T01:54:19;3.17;;;1.30;;
55655;SDS011;41530;52.382;5.270;2023-04-16T01:56:45;2.97;;;1.55;;
55655;SDS011;41530;52.382;5.270;2023-04-16T01:59:12;4.93;;;1.50;;
55655;SDS011;41530;52.382;5.270;2023-04-16T02:01:39;5.03;;;1.35;;
55655;SDS011;41530;52.382;5.270;2023-04-16T02:04:05;3.17;;;1.50;;
55655;SDS011;41530;52.382;5.270;2023-04-16T02:06:33;2.72;;;1.20;;
55655;SDS011;41530;52.382;5.270;2023-04-16T02:09:00;4.80;;;1.77;;
55655;SDS011;41530;52.382;5.270;2023-04-16T02:11:26;3.85;;;1.40;;
55655;SDS011;41530;52.382;5.270;2023-04-16T02:13:53;5.40;;;1.90;;
55655;SDS011;41530;52.382;5.270;2023-04-16T02:16:19;3.05;;;1.58;;
55655;SDS011;41530;52.382;5.270;2023-04-16T02:18:46;6.15;;;2.13;;
55655;SDS011;41530;52.382;5.270;2023-04-16T02:21:12;4.70;;;1.92;;
55655;SDS011;41530;52.382;5.270;2023-04-16T02:23:39;4.68;;;1.90;;
55655;SDS011;41530;52.382;5.270;2023-04-16T02:26:06;4.55;;;1.90;;
55655;SDS011;41530;52.382;5.270;2023-04-16T02:28:33;5.60;;;2.80;;
55655;SDS011;41530;52.382;5.270;2023-04-16T02:30:59;9.52;;;2.30;;
55655;SDS011;41530;52.382;5.270;2023-04-16T02:33:26;5.75;;;2.05;;
55655;SDS011;41530;52.382;5.270;2023-04-16T02:35:52;4.53;;;2.05;;
55655;SDS011;41530;52.382;5.270;2023-04-16T02:38:19;7.28;;;2.00;;
55655;SDS011;41530;52.382;5.270;2023-04-16T02:40:45;7.40;;;2.22;;
55655;SDS011;41530;52.382;5.270;2023-04-16T02:43:12;4.30;;;1.80;;
55655;SDS011;41530;52.382;5.270;2023-04-16T02:45:39;5.82;;;2.10;;
55655;SDS011;41530;52.382;5.270;2023-04-16T02:48:05;6.25;;;2.42;;
55655;SDS011;41530;52.382;5.270;2023-04-16T02:50:33;4.97;;;2.05;;
55655;SDS011;41530;52.382;5.270;2023-04-16T02:53:00;6.25;;;1.90;;
55655;SDS011;41530;52.382;5.270;2023-04-16T02:55:27;5.22;;;2.08;;
55655;SDS011;41530;52.382;5.270;2023-04-16T02:57:54;5.97;;;2.20;;
55655;SDS011;41530;52.382;5.270;2023-04-16T03:00:21;5.80;;;2.03;;
55655;SDS011;41530;52.382;5.270;2023-04-16T03:02:47;5.90;;;2.60;;
55655;SDS011;41530;52.382;5.270;2023-04-16T03:05:14;4.90;;;2.38;;
55655;SDS011;41530;52.382;5.270;2023-04-16T03:07:41;4.72;;;2.63;;
55655;SDS011;41530;52.382;5.270;2023-04-16T03:10:08;7.03;;;2.70;;
55655;SDS011;41530;52.382;5.270;2023-04-16T03:12:35;6.80;;;2.67;;
55655;SDS011;41530;52.382;5.270;2023-04-16T03:15:01;5.43;;;2.53;;
55655;SDS011;41530;52.382;5.270;2023-04-16T03:17:28;5.07;;;2.50;;
55655;SDS011;41530;52.382;5.270;2023-04-16T03:19:55;6.75;;;2.78;;
55655;SDS011;41530;52.382;5.270;2023-04-16T03:22:22;5.78;;;2.40;;
55655;SDS011;41530;52.382;5.270;2023-04-16T03:24:48;6.45;;;2.83;;
55655;SDS011;41530;52.382;5.270;2023-04-16T03:27:15;5.00;;;2.30;;
55655;SDS011;41530;52.382;5.270;2023-04-16T03:29:41;6.10;;;2.85;;
55655;SDS011;41530;52.382;5.270;2023-04-16T03:32:08;7.75;;;2.72;;
55655;SDS011;41530;52.382;5.270;2023-04-16T03:34:35;10.18;;;2.88;;
55655;SDS011;41530;52.382;5.270;2023-04-16T03:37:02;5.88;;;2.92;;
55655;SDS011;41530;52.382;5.270;2023-04-16T03:39:31;7.75;;;2.28;;
55655;SDS011;41530;52.382;5.270;2023-04-16T03:41:58;7.13;;;2.90;;
55655;SDS011;41530;52.382;5.270;2023-04-16T03:44:25;6.78;;;2.67;;
55655;SDS011;41530;52.382;5.270;2023-04-16T03:46:51;6.50;;;2.55;;
55655;SDS011;41530;52.382;5.270;2023-04-16T03:49:18;10.50;;;2.97;;
55655;SDS011;41530;52.382;5.270;2023-04-16T03:51:45;7.78;;;2.60;;
55655;SDS011;41530;52.382;5.270;2023-04-16T03:54:11;8.50;;;2.40;;
55655;SDS011;41530;52.382;5.270;2023-04-16T03:56:41;6.22;;;3.05;;
55655;SDS011;41530;52.382;5.270;2023-04-16T03:59:08;7.60;;;2.75;;
55655;SDS011;41530;52.382;5.270;2023-04-16T04:01:35;5.65;;;2.28;;
55655;SDS011;41530;52.382;5.270;2023-04-16T04:04:02;5.75;;;2.83;;
55655;SDS011;41530;52.382;5.270;2023-04-16T04:06:29;6.72;;;2.80;;
55655;SDS011;41530;52.382;5.270;2023-04-16T04:08:56;10.45;;;2.78;;
55655;SDS011;41530;52.382;5.270;2023-04-16T04:11:22;6.15;;;2.97;;
55655;SDS011;41530;52.382;5.270;2023-04-16T04:13:49;8.30;;;2.53;;
55655;SDS011;41530;52.382;5.270;2023-04-16T04:16:16;7.03;;;2.75;;
55655;SDS011;41530;52.382;5.270;2023-04-16T04:18:42;5.97;;;2.35;;
55655;SDS011;41530;52.382;5.270;2023-04-16T04:21:09;5.95;;;2.45;;
55655;SDS011;41530;52.382;5.270;2023-04-16T04:23:36;6.30;;;2.58;;
55655;SDS011;41530;52.382;5.270;2023-04-16T04:26:03;6.05;;;2.70;;
55655;SDS011;41530;52.382;5.270;2023-04-16T04:28:31;6.00;;;2.60;;
55655;SDS011;41530;52.382;5.270;2023-04-16T04:30:58;5.70;;;2.50;;
55655;SDS011;41530;52.382;5.270;2023-04-16T04:33:25;8.15;;;2.75;;
55655;SDS011;41530;52.382;5.270;2023-04-16T04:35:52;8.77;;;2.83;;
55655;SDS011;41530;52.382;5.270;2023-04-16T04:38:19;5.18;;;2.83;;
55655;SDS011;41530;52.382;5.270;2023-04-16T04:40:47;7.93;;;2.75;;
55655;SDS011;41530;52.382;5.270;2023-04-16T04:43:14;6.50;;;2.47;;
55655;SDS011;41530;52.382;5.270;2023-04-16T04:45:40;10.23;;;2.92;;
55655;SDS011;41530;52.382;5.270;2023-04-16T04:48:07;6.00;;;2.40;;
55655;SDS011;41530;52.382;5.270;2023-04-16T04:50:33;7.30;;;2.42;;
55655;SDS011;41530;52.382;5.270;2023-04-16T04:53:01;5.55;;;2.20;;
55655;SDS011;41530;52.382;5.270;2023-04-16T04:55:29;6.85;;;2.40;;
55655;SDS011;41530;52.382;5.270;2023-04-16T04:57:56;7.75;;;2.95;;
55655;SDS011;41530;52.382;5.270;2023-04-16T05:00:22;8.50;;;2.45;;
55655;SDS011;41530;52.382;5.270;2023-04-16T05:02:49;5.25;;;2.55;;
55655;SDS011;41530;52.382;5.270;2023-04-16T05:05:17;9.75;;;3.13;;
55655;SDS011;41530;52.382;5.270;2023-04-16T05:07:44;8.48;;;3.00;;
55655;SDS011;41530;52.382;5.270;2023-04-16T05:10:10;7.93;;;2.83;;
55655;SDS011;41530;52.382;5.270;2023-04-16T05:12:37;7.63;;;2.42;;
55655;SDS011;41530;52.382;5.270;2023-04-16T05:15:05;7.85;;;3.00;;
55655;SDS011;41530;52.382;5.270;2023-04-16T05:17:32;3.42;;;2.28;;
55655;SDS011;41530;52.382;5.270;2023-04-16T05:19:59;7.80;;;2.58;;
55655;SDS011;41530;52.382;5.270;2023-04-16T05:22:25;8.57;;;3.20;;
55655;SDS011;41530;52.382;5.270;2023-04-16T05:24:52;6.28;;;2.50;;
55655;SDS011;41530;52.382;5.270;2023-04-16T05:27:19;5.63;;;2.45;;
55655;SDS011;41530;52.382;5.270;2023-04-16T05:29:45;5.82;;;2.58;;
55655;SDS011;41530;52.382;5.270;2023-04-16T05:32:12;8.40;;;3.20;;
55655;SDS011;41530;52.382;5.270;2023-04-16T05:34:38;7.95;;;3.20;;
55655;SDS011;41530;52.382;5.270;2023-04-16T05:37:05;6.78;;;2.85;;
55655;SDS011;41530;52.382;5.270;2023-04-16T05:39:31;8.57;;;2.78;;
55655;SDS011;41530;52.382;5.270;2023-04-16T05:41:58;5.18;;;2.40;;
55655;SDS011;41530;52.382;5.270;2023-04-16T05:44:25;4.22;;;2.40;;
55655;SDS011;41530;52.382;5.270;2023-04-16T05:46:51;5.07;;;2.20;;
55655;SDS011;41530;52.382;5.270;2023-04-16T05:49:18;4.88;;;2.25;;
55655;SDS011;41530;52.382;5.270;2023-04-16T05:51:45;5.38;;;2.13;;
55655;SDS011;41530;52.382;5.270;2023-04-16T05:54:12;4.45;;;2.05;;
55655;SDS011;41530;52.382;5.270;2023-04-16T05:56:39;6.82;;;2.17;;
55655;SDS011;41530;52.382;5.270;2023-04-16T05:59:06;4.22;;;2.38;;
55655;SDS011;41530;52.382;5.270;2023-04-16T06:01:33;3.42;;;1.88;;
55655;SDS011;41530;52.382;5.270;2023-04-16T06:03:59;3.13;;;2.03;;
55655;SDS011;41530;52.382;5.270;2023-04-16T06:06:26;3.30;;;2.10;;
55655;SDS011;41530;52.382;5.270;2023-04-16T06:08:53;4.07;;;1.92;;
55655;SDS011;41530;52.382;5.270;2023-04-16T06:11:19;2.58;;;1.70;;
55655;SDS011;41530;52.382;5.270;2023-04-16T06:13:46;4.13;;;2.00;;
55655;SDS011;41530;52.382;5.270;2023-04-16T06:16:13;3.65;;;2.03;;
55655;SDS011;41530;52.382;5.270;2023-04-16T06:18:39;3.20;;;1.80;;
55655;SDS011;41530;52.382;5.270;2023-04-16T06:21:06;2.42;;;1.80;;
55655;SDS011;41530;52.382;5.270;2023-04-16T06:23:32;3.55;;;1.80;;
55655;SDS011;41530;52.382;5.270;2023-04-16T06:25:59;5.20;;;2.20;;
55655;SDS011;41530;52.382;5.270;2023-04-16T06:28:26;2.40;;;1.73;;
55655;SDS011;41530;52.382;5.270;2023-04-16T06:30:52;3.63;;;1.63;;
55655;SDS011;41530;52.382;5.270;2023-04-16T06:33:19;7.00;;;1.80;;
55655;SDS011;41530;52.382;5.270;2023-04-16T06:35:45;2.95;;;1.42;;
55655;SDS011;41530;52.382;5.270;2023-04-16T06:38:12;3.55;;;1.58;;
55655;SDS011;41530;52.382;5.270;2023-04-16T06:40:39;4.85;;;1.83;;
55655;SDS011;41530;52.382;5.270;2023-04-16T06:43:06;2.65;;;1.50;;
55655;SDS011;41530;52.382;5.270;2023-04-16T06:45:33;4.10;;;1.77;;
55655;SDS011;41530;52.382;5.270;2023-04-16T06:47:59;4.20;;;2.05;;
55655;SDS011;41530;52.382;5.270;2023-04-16T06:50:28;3.08;;;1.67;;
55655;SDS011;41530;52.382;5.270;2023-04-16T06:52:55;3.45;;;1.52;;
55655;SDS011;41530;52.382;5.270;2023-04-16T06:55:22;3.53;;;1.60;;
55655;SDS011;41530;52.382;5.270;2023-04-16T06:57:48;2.42;;;1.40;;
55655;SDS011;41530;52.382;5.270;2023-04-16T07:00:15;2.40;;;1.50;;
55655;SDS011;41530;52.382;5.270;2023-04-16T07:02:42;4.15;;;1.55;;
55655;SDS011;41530;52.382;5.270;2023-04-16T07:05:09;3.67;;;1.58;;
55655;SDS011;41530;52.382;5.270;2023-04-16T07:07:36;2.65;;;1.52;;
55655;SDS011;41530;52.382;5.270;2023-04-16T07:10:02;2.03;;;1.30;;
55655;SDS011;41530;52.382;5.270;2023-04-16T07:12:31;2.17;;;1.38;;
55655;SDS011;41530;52.382;5.270;2023-04-16T07:14:58;5.65;;;1.60;;
55655;SDS011;41530;52.382;5.270;2023-04-16T07:17:25;5.45;;;1.70;;
55655;SDS011;41530;52.382;5.270;2023-04-16T07:19:51;3.35;;;1.50;;
55655;SDS011;41530;52.382;5.270;2023-04-16T07:22:18;2.20;;;1.60;;
55655;SDS011;41530;52.382;5.270;2023-04-16T07:24:45;3.67;;;1.65;;
55655;SDS011;41530;52.382;5.270;2023-04-16T07:27:12;2.35;;;1.60;;
55655;SDS011;41530;52.382;5.270;2023-04-16T07:29:38;4.57;;;1.55;;
55655;SDS011;41530;52.382;5.270;2023-04-16T07:32:05;3.95;;;1.60;;
55655;SDS011;41530;52.382;5.270;2023-04-16T07:34:34;10.45;;;1.75;;
55655;SDS011;41530;52.382;5.270;2023-04-16T07:37:01;2.58;;;1.40;;
55655;SDS011;41530;52.382;5.270;2023-04-16T07:39:27;1.83;;;1.38;;
55655;SDS011;41530;52.382;5.270;2023-04-16T07:41:54;3.28;;;1.58;;
55655;SDS011;41530;52.382;5.270;2023-04-16T07:44:20;2.88;;;1.40;;
55655;SDS011;41530;52.382;5.270;2023-04-16T07:46:47;1.58;;;1.23;;
55655;SDS011;41530;52.382;5.270;2023-04-16T07:49:14;2.22;;;1.50;;
55655;SDS011;41530;52.382;5.270;2023-04-16T07:51:40;2.95;;;1.70;;
55655;SDS011;41530;52.382;5.270;2023-04-16T07:54:07;2.28;;;1.40;;
55655;SDS011;41530;52.382;5.270;2023-04-16T07:56:35;1.52;;;1.20;;
55655;SDS011;41530;52.382;5.270;2023-04-16T07:59:01;5.00;;;1.52;;
55655;SDS011;41530;52.382;5.270;2023-04-16T08:01:46;1.40;;;1.30;;
55655;SDS011;41530;52.382;5.270;2023-04-16T08:04:13;2.10;;;1.40;;
55655;SDS011;41530;52.382;5.270;2023-04-16T08:06:42;2.67;;;1.40;;
55655;SDS011;41530;52.382;5.270;2023-04-16T08:09:09;2.45;;;1.30;;
55655;SDS011;41530;52.382;5.270;2023-04-16T08:11:36;1.83;;;1.23;;
55655;SDS011;41530;52.382;5.270;2023-04-16T08:14:02;2.90;;;1.40;;
55655;SDS011;41530;52.382;5.270;2023-04-16T08:16:29;2.80;;;1.60;;
55655;SDS011;41530;52.382;5.270;2023-04-16T08:18:55;2.65;;;1.23;;
55655;SDS011;41530;52.382;5.270;2023-04-16T08:21:22;2.13;;;1.38;;
55655;SDS011;41530;52.382;5.270;2023-04-16T08:23:49;2.60;;;1.15;;
55655;SDS011;41530;52.382;5.270;2023-04-16T08:26:15;3.65;;;1.27;;
55655;SDS011;41530;52.382;5.270;2023-04-16T08:28:42;2.42;;;1.25;;
55655;SDS011;41530;52.382;5.270;2023-04-16T08:31:09;1.63;;;1.20;;
55655;SDS011;41530;52.382;5.270;2023-04-16T08:33:36;1.23;;;1.00;;
55655;SDS011;41530;52.382;5.270;2023-04-16T08:36:03;1.70;;;1.08;;
55655;SDS011;41530;52.382;5.270;2023-04-16T08:38:29;1.98;;;1.30;;
55655;SDS011;41530;52.382;5.270;2023-04-16T08:40:57;1.67;;;1.45;;
55655;SDS011;41530;52.382;5.270;2023-04-16T08:43:29;2.00;;;1.30;;
55655;SDS011;41530;52.382;5.270;2023-04-16T08:45:59;3.75;;;1.35;;
55655;SDS011;41530;52.382;5.270;2023-04-16T08:48:28;1.92;;;1.23;;
55655;SDS011;41530;52.382;5.270;2023-04-16T08:50:59;1.35;;;1.10;;
55655;SDS011;41530;52.382;5.270;2023-04-16T08:53:41;2.22;;;1.13;;
55655;SDS011;41530;52.382;5.270;2023-04-16T08:56:13;3.70;;;1.40;;
55655;SDS011;41530;52.382;5.270;2023-04-16T08:58:44;2.70;;;1.33;;
55655;SDS011;41530;52.382;5.270;2023-04-16T09:01:13;3.72;;;1.50;;
55655;SDS011;41530;52.382;5.270;2023-04-16T09:03:40;3.53;;;1.50;;
55655;SDS011;41530;52.382;5.270;2023-04-16T09:06:07;2.45;;;1.25;;
55655;SDS011;41530;52.382;5.270;2023-04-16T09:08:35;3.80;;;1.52;;
55655;SDS011;41530;52.382;5.270;2023-04-16T09:11:03;2.50;;;1.63;;
55655;SDS011;41530;52.382;5.270;2023-04-16T09:13:30;2.55;;;1.30;;
55655;SDS011;41530;52.382;5.270;2023-04-16T09:15:57;1.50;;;1.17;;
55655;SDS011;41530;52.382;5.270;2023-04-16T09:18:24;2.83;;;1.40;;
55655;SDS011;41530;52.382;5.270;2023-04-16T09:20:53;2.35;;;1.58;;
55655;SDS011;41530;52.382;5.270;2023-04-16T09:23:21;3.03;;;1.85;;
55655;SDS011;41530;52.382;5.270;2023-04-16T09:25:48;3.28;;;1.85;;
55655;SDS011;41530;52.382;5.270;2023-04-16T09:31:14;5.63;;;1.40;;
55655;SDS011;41530;52.382;5.270;2023-04-16T09:33:42;4.50;;;1.60;;
55655;SDS011;41530;52.382;5.270;2023-04-16T09:36:09;4.07;;;1.73;;
55655;SDS011;41530;52.382;5.270;2023-04-16T09:38:49;2.50;;;1.48;;
55655;SDS011;41530;52.382;5.270;2023-04-16T09:41:17;2.40;;;1.50;;
55655;SDS011;41530;52.382;5.270;2023-04-16T09:46:22;4.00;;;2.17;;
55655;SDS011;41530;52.382;5.270;2023-04-16T09:48:50;5.28;;;1.90;;
55655;SDS011;41530;52.382;5.270;2023-04-16T09:51:17;7.35;;;2.40;;
55655;SDS011;41530;52.382;5.270;2023-04-16T09:53:43;4.32;;;1.92;;
55655;SDS011;41530;52.382;5.270;2023-04-16T09:56:11;5.30;;;2.20;;
55655;SDS011;41530;52.382;5.270;2023-04-16T09:58:38;5.57;;;2.75;;
55655;SDS011;41530;52.382;5.270;2023-04-16T10:01:09;7.47;;;2.63;;
55655;SDS011;41530;52.382;5.270;2023-04-16T10:03:40;7.80;;;2.65;;
55655;SDS011;41530;52.382;5.270;2023-04-16T10:11:16;8.07;;;2.45;;
55655;SDS011;41530;52.382;5.270;2023-04-16T10:13:43;5.93;;;2.47;;
55655;SDS011;41530;52.382;5.270;2023-04-16T10:16:09;6.45;;;2.70;;
55655;SDS011;41530;52.382;5.270;2023-04-16T10:18:37;4.30;;;2.33;;
55655;SDS011;41530;52.382;5.270;2023-04-16T10:21:05;6.00;;;2.35;;
55655;SDS011;41530;52.382;5.270;2023-04-16T10:23:32;5.30;;;2.72;;
55655;SDS011;41530;52.382;5.270;2023-04-16T10:26:00;4.10;;;2.20;;
55655;SDS011;41530;52.382;5.270;2023-04-16T10:28:27;5.72;;;1.90;;
55655;SDS011;41530;52.382;5.270;2023-04-16T10:30:55;3.17;;;2.28;;
55655;SDS011;41530;52.382;5.270;2023-04-16T10:33:27;4.68;;;1.92;;
55655;SDS011;41530;52.382;5.270;2023-04-16T10:36:15;4.05;;;2.10;;
55655;SDS011;41530;52.382;5.270;2023-04-16T10:38:51;4.53;;;2.00;;
55655;SDS011;41530;52.382;5.270;2023-04-16T10:41:21;4.95;;;1.85;;
55655;SDS011;41530;52.382;5.270;2023-04-16T10:43:49;4.88;;;1.83;;
55655;SDS011;41530;52.382;5.270;2023-04-16T10:46:23;2.88;;;1.90;;
55655;SDS011;41530;52.382;5.270;2023-04-16T10:49:00;4.82;;;2.22;;
55655;SDS011;41530;52.382;5.270;2023-04-16T10:51:28;3.72;;;2.20;;
55655;SDS011;41530;52.382;5.270;2023-04-16T10:54:03;4.85;;;1.85;;
55655;SDS011;41530;52.382;5.270;2023-04-16T10:56:45;4.90;;;2.22;;
55655;SDS011;41530;52.382;5.270;2023-04-16T10:59:16;2.67;;;1.80;;
55655;SDS011;41530;52.382;5.270;2023-04-16T11:01:44;3.15;;;1.95;;
55655;SDS011;41530;52.382;5.270;2023-04-16T11:07:03;4.00;;;2.00;;
55655;SDS011;41530;52.382;5.270;2023-04-16T11:09:54;2.90;;;1.85;;
55655;SDS011;41530;52.382;5.270;2023-04-16T11:20:13;2.95;;;1.77;;
55655;SDS011;41530;52.382;5.270;2023-04-16T11:22:45;2.75;;;1.40;;
55655;SDS011;41530;52.382;5.270;2023-04-16T11:25:19;5.50;;;1.75;;
55655;SDS011;41530;52.382;5.270;2023-04-16T11:27:52;2.50;;;1.80;;
55655;SDS011;41530;52.382;5.270;2023-04-16T11:30:29;3.78;;;1.65;;
55655;SDS011;41530;52.382;5.270;2023-04-16T11:32:57;2.78;;;1.40;;
55655;SDS011;41530;52.382;5.270;2023-04-16T11:35:24;2.80;;;1.70;;
55655;SDS011;41530;52.382;5.270;2023-04-16T11:37:54;2.38;;;1.48;;
55655;SDS011;41530;52.382;5.270;2023-04-16T11:40:21;9.52;;;1.70;;
55655;SDS011;41530;52.382;5.270;2023-04-16T11:42:48;3.53;;;1.30;;
55655;SDS011;41530;52.382;5.270;2023-04-16T11:45:15;2.58;;;1.45;;
55655;SDS011;41530;52.382;5.270;2023-04-16T11:52:54;2.10;;;1.67;;
55655;SDS011;41530;52.382;5.270;2023-04-16T11:55:22;4.95;;;1.30;;
55655;SDS011;41530;52.382;5.270;2023-04-16T11:57:49;3.80;;;1.88;;
55655;SDS011;41530;52.382;5.270;2023-04-16T12:00:17;3.22;;;1.65;;
55655;SDS011;41530;52.382;5.270;2023-04-16T12:02:50;2.30;;;1.45;;
55655;SDS011;41530;52.382;5.270;2023-04-16T12:05:31;3.50;;;1.50;;
55655;SDS011;41530;52.382;5.270;2023-04-16T12:08:04;5.47;;;1.45;;
55655;SDS011;41530;52.382;5.270;2023-04-16T12:10:33;5.43;;;1.67;;
55655;SDS011;41530;52.382;5.270;2023-04-16T12:15:58;2.90;;;1.63;;
55655;SDS011;41530;52.382;5.270;2023-04-16T12:18:24;5.47;;;1.90;;
55655;SDS011;41530;52.382;5.270;2023-04-16T12:20:54;2.10;;;1.50;;
55655;SDS011;41530;52.382;5.270;2023-04-16T12:23:28;4.82;;;1.63;;
55655;SDS011;41530;52.382;5.270;2023-04-16T12:25:56;2.38;;;1.38;;
55655;SDS011;41530;52.382;5.270;2023-04-16T12:28:28;2.92;;;2.10;;
55655;SDS011;41530;52.382;5.270;2023-04-16T12:30:59;3.08;;;1.70;;
55655;SDS011;41530;52.382;5.270;2023-04-16T12:33:26;2.58;;;1.52;;
55655;SDS011;41530;52.382;5.270;2023-04-16T12:35:53;2.42;;;1.60;;
55655;SDS011;41530;52.382;5.270;2023-04-16T12:38:20;2.00;;;1.58;;
55655;SDS011;41530;52.382;5.270;2023-04-16T12:40:49;5.50;;;1.70;;
55655;SDS011;41530;52.382;5.270;2023-04-16T12:43:16;7.28;;;1.77;;
55655;SDS011;41530;52.382;5.270;2023-04-16T12:45:43;3.22;;;1.65;;
55655;SDS011;41530;52.382;5.270;2023-04-16T12:48:10;3.03;;;1.73;;
55655;SDS011;41530;52.382;5.270;2023-04-16T12:50:36;2.80;;;1.67;;
55655;SDS011;41530;52.382;5.270;2023-04-16T12:53:05;3.70;;;1.77;;
55655;SDS011;41530;52.382;5.270;2023-04-16T12:55:31;6.93;;;2.03;;
55655;SDS011;41530;52.382;5.270;2023-04-16T12:57:58;4.47;;;1.90;;
55655;SDS011;41530;52.382;5.270;2023-04-16T13:00:24;3.83;;;2.00;;
55655;SDS011;41530;52.382;5.270;2023-04-16T13:02:51;3.58;;;1.92;;
55655;SDS011;41530;52.382;5.270;2023-04-16T13:05:18;2.72;;;1.45;;
55655;SDS011;41530;52.382;5.270;2023-04-16T13:07:44;2.97;;;1.77;;
55655;SDS011;41530;52.382;5.270;2023-04-16T13:10:11;2.50;;;1.70;;
55655;SDS011;41530;52.382;5.270;2023-04-16T13:12:39;6.00;;;1.70;;
55655;SDS011;41530;52.382;5.270;2023-04-16T13:15:05;2.25;;;1.95;;
55655;SDS011;41530;52.382;5.270;2023-04-16T13:17:32;3.17;;;1.65;;
55655;SDS011;41530;52.382;5.270;2023-04-16T13:19:59;3.25;;;1.90;;
55655;SDS011;41530;52.382;5.270;2023-04-16T13:22:26;5.53;;;1.90;;
55655;SDS011;41530;52.382;5.270;2023-04-16T13:24:53;4.50;;;2.15;;
55655;SDS011;41530;52.382;5.270;2023-04-16T13:27:20;2.90;;;1.70;;
55655;SDS011;41530;52.382;5.270;2023-04-16T13:29:47;3.05;;;1.70;;
55655;SDS011;41530;52.382;5.270;2023-04-16T13:32:13;3.75;;;1.80;;
55655;SDS011;41530;52.382;5.270;2023-04-16T13:34:40;2.70;;;1.70;;
55655;SDS011;41530;52.382;5.270;2023-04-16T13:37:07;4.75;;;2.17;;
55655;SDS011;41530;52.382;5.270;2023-04-16T13:39:34;3.55;;;1.98;;
55655;SDS011;41530;52.382;5.270;2023-04-16T13:42:00;3.00;;;2.10;;
55655;SDS011;41530;52.382;5.270;2023-04-16T13:44:27;5.38;;;1.80;;
55655;SDS011;41530;52.382;5.270;2023-04-16T13:46:54;2.60;;;1.60;;
55655;SDS011;41530;52.382;5.270;2023-04-16T13:49:21;2.83;;;2.08;;
55655;SDS011;41530;52.382;5.270;2023-04-16T13:51:48;3.97;;;1.73;;
55655;SDS011;41530;52.382;5.270;2023-04-16T13:54:15;3.05;;;1.58;;
55655;SDS011;41530;52.382;5.270;2023-04-16T13:56:42;3.13;;;1.63;;
55655;SDS011;41530;52.382;5.270;2023-04-16T13:59:09;2.15;;;1.73;;
55655;SDS011;41530;52.382;5.270;2023-04-16T14:01:36;2.30;;;1.67;;
55655;SDS011;41530;52.382;5.270;2023-04-16T14:04:03;4.07;;;2.05;;
55655;SDS011;41530;52.382;5.270;2023-04-16T14:06:32;3.72;;;2.00;;
55655;SDS011;41530;52.382;5.270;2023-04-16T14:09:00;2.58;;;1.50;;
55655;SDS011;41530;52.382;5.270;2023-04-16T14:11:27;2.42;;;1.55;;
55655;SDS011;41530;52.382;5.270;2023-04-16T14:13:53;3.47;;;1.77;;
55655;SDS011;41530;52.382;5.270;2023-04-16T14:16:20;7.40;;;1.80;;
55655;SDS011;41530;52.382;5.270;2023-04-16T14:18:47;6.05;;;2.67;;
55655;SDS011;41530;52.382;5.270;2023-04-16T14:21:14;3.85;;;2.10;;
55655;SDS011;41530;52.382;5.270;2023-04-16T14:23:40;2.53;;;1.85;;
55655;SDS011;41530;52.382;5.270;2023-04-16T14:26:07;2.72;;;1.77;;
55655;SDS011;41530;52.382;5.270;2023-04-16T14:28:34;3.80;;;1.83;;
55655;SDS011;41530;52.382;5.270;2023-04-16T14:31:01;4.40;;;2.00;;
55655;SDS011;41530;52.382;5.270;2023-04-16T14:33:27;4.28;;;1.65;;
55655;SDS011;41530;52.382;5.270;2023-04-16T14:35:54;2.40;;;1.58;;
55655;SDS011;41530;52.382;5.270;2023-04-16T14:38:21;2.55;;;2.00;;
55655;SDS011;41530;52.382;5.270;2023-04-16T14:40:47;4.22;;;2.05;;
55655;SDS011;41530;52.382;5.270;2023-04-16T14:43:14;2.90;;;1.60;;
55655;SDS011;41530;52.382;5.270;2023-04-16T14:45:41;2.60;;;1.70;;
55655;SDS011;41530;52.382;5.270;2023-04-16T14:48:07;2.75;;;1.65;;
55655;SDS011;41530;52.382;5.270;2023-04-16T14:50:34;3.10;;;2.00;;
55655;SDS011;41530;52.382;5.270;2023-04-16T14:53:09;2.33;;;1.60;;
55655;SDS011;41530;52.382;5.270;2023-04-16T14:55:37;4.60;;;1.92;;
55655;SDS011;41530;52.382;5.270;2023-04-16T14:58:03;2.17;;;1.90;;
55655;SDS011;41530;52.382;5.270;2023-04-16T15:00:31;4.03;;;1.80;;
55655;SDS011;41530;52.382;5.270;2023-04-16T15:02:59;3.00;;;1.90;;
55655;SDS011;41530;52.382;5.270;2023-04-16T15:05:26;2.72;;;1.90;;
55655;SDS011;41530;52.382;5.270;2023-04-16T15:07:53;3.85;;;1.88;;
55655;SDS011;41530;52.382;5.270;2023-04-16T15:10:20;6.05;;;2.08;;
55655;SDS011;41530;52.382;5.270;2023-04-16T15:12:46;3.50;;;1.70;;
55655;SDS011;41530;52.382;5.270;2023-04-16T15:15:13;4.10;;;2.20;;
55655;SDS011;41530;52.382;5.270;2023-04-16T15:17:41;4.00;;;1.88;;
55655;SDS011;41530;52.382;5.270;2023-04-16T15:20:08;1.88;;;1.52;;